sensor_id;sensor_type;location;lat;lon;timestamp;P1;durP1;ratioP1;P2;durP2;ratioP2
5939;SDS011;2995;-31.998;115.906;2023-07-13T00:00:36;11.70;;;4.17;;
5939;SDS011;2995;-31.998;115.906;2023-07-13T00:03:10;14.27;;;3.80;;
5939;SDS011;2995;-31.998;115.906;2023-07-13T00:05:44;22.93;;;4.20;;
5939;SDS011;2995;-31.998;115.906;2023-07-13T00:08:17;21.40;;;4.10;;
5939;SDS011;2995;-31.998;115.906;2023-07-13T00:10:50;13.27;;;3.93;;
5939;SDS011;2995;-31.998;115.906;2023-07-13T00:13:23;11.53;;;3.80;;
5939;SDS011;2995;-31.998;115.906;2023-07-13T00:15:54;16.60;;;3.40;;
5939;SDS011;2995;-31.998;115.906;2023-07-13T00:18:27;17.83;;;4.00;;
5939;SDS011;2995;-31.998;115.906;2023-07-13T00:20:58;17.13;;;4.43;;
5939;SDS011;2995;-31.998;115.906;2023-07-13T00:23:34;14.87;;;3.57;;
5939;SDS011;2995;-31.998;115.906;2023-07-13T00:26:10;16.47;;;3.57;;
5939;SDS011;2995;-31.998;115.906;2023-07-13T00:28:41;21.57;;;4.07;;
5939;SDS011;2995;-31.998;115.906;2023-07-13T00:31:13;13.40;;;3.20;;
5939;SDS011;2995;-31.998;115.906;2023-07-13T00:33:45;11.53;;;3.40;;
5939;SDS011;2995;-31.998;115.906;2023-07-13T00:36:17;14.87;;;3.87;;
5939;SDS011;2995;-31.998;115.906;2023-07-13T00:38:51;18.53;;;3.30;;
5939;SDS011;2995;-31.998;115.906;2023-07-13T00:41:24;10.97;;;3.00;;
5939;SDS011;2995;-31.998;115.906;2023-07-13T00:43:56;12.80;;;3.70;;
5939;SDS011;2995;-31.998;115.906;2023-07-13T00:46:29;15.53;;;3.00;;
5939;SDS011;2995;-31.998;115.906;2023-07-13T00:49:03;16.17;;;4.47;;
5939;SDS011;2995;-31.998;115.906;2023-07-13T00:51:37;13.47;;;2.90;;
5939;SDS011;2995;-31.998;115.906;2023-07-13T00:54:12;17.60;;;3.87;;
5939;SDS011;2995;-31.998;115.906;2023-07-13T00:56:49;15.60;;;3.60;;
5939;SDS011;2995;-31.998;115.906;2023-07-13T00:59:24;15.00;;;3.80;;
5939;SDS011;2995;-31.998;115.906;2023-07-13T01:01:56;30.37;;;5.23;;
5939;SDS011;2995;-31.998;115.906;2023-07-13T01:04:28;16.27;;;4.50;;
5939;SDS011;2995;-31.998;115.906;2023-07-13T01:06:59;18.70;;;4.13;;
5939;SDS011;2995;-31.998;115.906;2023-07-13T01:09:31;16.30;;;4.27;;
5939;SDS011;2995;-31.998;115.906;2023-07-13T01:12:05;19.73;;;4.03;;
5939;SDS011;2995;-31.998;115.906;2023-07-13T01:14:37;18.73;;;3.50;;
5939;SDS011;2995;-31.998;115.906;2023-07-13T01:17:10;16.93;;;4.07;;
5939;SDS011;2995;-31.998;115.906;2023-07-13T01:19:42;21.57;;;5.87;;
5939;SDS011;2995;-31.998;115.906;2023-07-13T01:22:17;18.60;;;4.00;;
5939;SDS011;2995;-31.998;115.906;2023-07-13T01:24:51;14.13;;;4.20;;
5939;SDS011;2995;-31.998;115.906;2023-07-13T01:27:24;18.03;;;4.27;;
5939;SDS011;2995;-31.998;115.906;2023-07-13T01:29:56;23.97;;;4.97;;
5939;SDS011;2995;-31.998;115.906;2023-07-13T01:32:30;17.50;;;4.90;;
5939;SDS011;2995;-31.998;115.906;2023-07-13T01:35:02;17.50;;;4.60;;
5939;SDS011;2995;-31.998;115.906;2023-07-13T01:37:36;15.93;;;4.87;;
5939;SDS011;2995;-31.998;115.906;2023-07-13T01:40:08;23.20;;;5.07;;
5939;SDS011;2995;-31.998;115.906;2023-07-13T01:42:41;26.70;;;5.10;;
5939;SDS011;2995;-31.998;115.906;2023-07-13T01:45:13;22.87;;;4.60;;
5939;SDS011;2995;-31.998;115.906;2023-07-13T01:47:44;23.53;;;5.17;;
5939;SDS011;2995;-31.998;115.906;2023-07-13T01:50:15;24.97;;;6.60;;
5939;SDS011;2995;-31.998;115.906;2023-07-13T01:52:49;23.80;;;6.13;;
5939;SDS011;2995;-31.998;115.906;2023-07-13T01:55:21;24.90;;;5.40;;
5939;SDS011;2995;-31.998;115.906;2023-07-13T01:57:53;21.13;;;4.47;;
5939;SDS011;2995;-31.998;115.906;2023-07-13T02:00:24;24.70;;;5.47;;
5939;SDS011;2995;-31.998;115.906;2023-07-13T02:02:58;22.00;;;4.23;;
5939;SDS011;2995;-31.998;115.906;2023-07-13T02:05:29;15.87;;;4.53;;
5939;SDS011;2995;-31.998;115.906;2023-07-13T02:08:03;32.67;;;6.13;;
5939;SDS011;2995;-31.998;115.906;2023-07-13T02:10:34;36.33;;;7.00;;
5939;SDS011;2995;-31.998;115.906;2023-07-13T02:13:06;22.37;;;5.63;;
5939;SDS011;2995;-31.998;115.906;2023-07-13T02:15:38;21.20;;;5.27;;
5939;SDS011;2995;-31.998;115.906;2023-07-13T02:18:10;21.27;;;5.63;;
5939;SDS011;2995;-31.998;115.906;2023-07-13T02:20:43;36.17;;;5.93;;
5939;SDS011;2995;-31.998;115.906;2023-07-13T02:23:16;22.33;;;5.53;;
5939;SDS011;2995;-31.998;115.906;2023-07-13T02:25:48;25.60;;;6.37;;
5939;SDS011;2995;-31.998;115.906;2023-07-13T02:28:23;34.70;;;7.43;;
5939;SDS011;2995;-31.998;115.906;2023-07-13T02:30:54;24.90;;;6.10;;
5939;SDS011;2995;-31.998;115.906;2023-07-13T02:33:33;32.30;;;6.40;;
5939;SDS011;2995;-31.998;115.906;2023-07-13T02:36:04;21.90;;;5.00;;
5939;SDS011;2995;-31.998;115.906;2023-07-13T02:38:38;25.23;;;4.90;;
5939;SDS011;2995;-31.998;115.906;2023-07-13T02:41:09;18.97;;;5.83;;
5939;SDS011;2995;-31.998;115.906;2023-07-13T02:43:40;17.70;;;5.57;;
5939;SDS011;2995;-31.998;115.906;2023-07-13T02:46:12;26.27;;;5.20;;
5939;SDS011;2995;-31.998;115.906;2023-07-13T02:48:43;25.03;;;5.10;;
5939;SDS011;2995;-31.998;115.906;2023-07-13T02:51:15;19.30;;;3.93;;
5939;SDS011;2995;-31.998;115.906;2023-07-13T02:53:49;17.10;;;4.53;;
5939;SDS011;2995;-31.998;115.906;2023-07-13T02:56:21;17.70;;;4.20;;
5939;SDS011;2995;-31.998;115.906;2023-07-13T02:58:54;19.50;;;4.70;;
5939;SDS011;2995;-31.998;115.906;2023-07-13T03:01:26;16.93;;;3.80;;
5939;SDS011;2995;-31.998;115.906;2023-07-13T03:03:59;18.53;;;4.23;;
5939;SDS011;2995;-31.998;115.906;2023-07-13T03:06:30;18.30;;;3.97;;
5939;SDS011;2995;-31.998;115.906;2023-07-13T03:09:04;17.53;;;4.80;;
5939;SDS011;2995;-31.998;115.906;2023-07-13T03:11:36;23.80;;;4.10;;
5939;SDS011;2995;-31.998;115.906;2023-07-13T03:14:11;17.57;;;4.30;;
5939;SDS011;2995;-31.998;115.906;2023-07-13T03:16:42;18.03;;;3.60;;
5939;SDS011;2995;-31.998;115.906;2023-07-13T03:19:14;15.33;;;4.00;;
5939;SDS011;2995;-31.998;115.906;2023-07-13T03:21:46;13.70;;;3.50;;
5939;SDS011;2995;-31.998;115.906;2023-07-13T03:24:20;16.53;;;3.50;;
5939;SDS011;2995;-31.998;115.906;2023-07-13T03:26:52;15.80;;;3.73;;
5939;SDS011;2995;-31.998;115.906;2023-07-13T03:29:23;16.73;;;3.00;;
5939;SDS011;2995;-31.998;115.906;2023-07-13T03:31:55;18.10;;;3.20;;
5939;SDS011;2995;-31.998;115.906;2023-07-13T03:34:27;20.73;;;3.77;;
5939;SDS011;2995;-31.998;115.906;2023-07-13T03:36:59;13.20;;;3.23;;
5939;SDS011;2995;-31.998;115.906;2023-07-13T03:39:32;18.43;;;5.03;;
5939;SDS011;2995;-31.998;115.906;2023-07-13T03:42:04;12.90;;;3.40;;
5939;SDS011;2995;-31.998;115.906;2023-07-13T03:44:36;13.67;;;3.23;;
5939;SDS011;2995;-31.998;115.906;2023-07-13T03:47:08;14.03;;;2.83;;
5939;SDS011;2995;-31.998;115.906;2023-07-13T03:49:40;16.90;;;5.30;;
5939;SDS011;2995;-31.998;115.906;2023-07-13T05:11:01;12.30;;;3.37;;
5939;SDS011;2995;-31.998;115.906;2023-07-13T05:13:34;21.43;;;3.90;;
5939;SDS011;2995;-31.998;115.906;2023-07-13T05:16:05;13.00;;;2.97;;
5939;SDS011;2995;-31.998;115.906;2023-07-13T05:18:38;9.93;;;2.70;;
5939;SDS011;2995;-31.998;115.906;2023-07-13T05:21:10;13.80;;;3.00;;
5939;SDS011;2995;-31.998;115.906;2023-07-13T05:23:41;16.10;;;3.57;;
5939;SDS011;2995;-31.998;115.906;2023-07-13T05:26:15;15.70;;;3.50;;
5939;SDS011;2995;-31.998;115.906;2023-07-13T05:28:47;13.30;;;3.50;;
5939;SDS011;2995;-31.998;115.906;2023-07-13T05:31:18;10.10;;;3.33;;
5939;SDS011;2995;-31.998;115.906;2023-07-13T05:33:50;13.50;;;2.73;;
5939;SDS011;2995;-31.998;115.906;2023-07-13T05:36:21;11.40;;;3.73;;
5939;SDS011;2995;-31.998;115.906;2023-07-13T05:38:53;10.13;;;3.17;;
5939;SDS011;2995;-31.998;115.906;2023-07-13T05:41:26;14.87;;;3.57;;
5939;SDS011;2995;-31.998;115.906;2023-07-13T05:43:58;8.90;;;3.23;;
5939;SDS011;2995;-31.998;115.906;2023-07-13T05:46:30;16.40;;;3.03;;
5939;SDS011;2995;-31.998;115.906;2023-07-13T05:49:01;17.83;;;3.10;;
5939;SDS011;2995;-31.998;115.906;2023-07-13T05:51:33;11.93;;;2.90;;
5939;SDS011;2995;-31.998;115.906;2023-07-13T05:54:04;10.77;;;2.63;;
5939;SDS011;2995;-31.998;115.906;2023-07-13T05:56:38;13.80;;;3.40;;
5939;SDS011;2995;-31.998;115.906;2023-07-13T05:59:09;14.60;;;2.93;;
5939;SDS011;2995;-31.998;115.906;2023-07-13T06:01:40;8.07;;;2.47;;
5939;SDS011;2995;-31.998;115.906;2023-07-13T06:04:11;10.27;;;2.80;;
5939;SDS011;2995;-31.998;115.906;2023-07-13T06:06:43;14.23;;;3.00;;
5939;SDS011;2995;-31.998;115.906;2023-07-13T06:09:14;12.97;;;3.17;;
5939;SDS011;2995;-31.998;115.906;2023-07-13T06:11:47;8.93;;;2.63;;
5939;SDS011;2995;-31.998;115.906;2023-07-13T06:14:18;10.73;;;3.57;;
5939;SDS011;2995;-31.998;115.906;2023-07-13T06:16:49;12.63;;;2.70;;
5939;SDS011;2995;-31.998;115.906;2023-07-13T06:19:21;15.63;;;2.87;;
5939;SDS011;2995;-31.998;115.906;2023-07-13T06:21:52;9.67;;;3.17;;
5939;SDS011;2995;-31.998;115.906;2023-07-13T06:24:24;11.83;;;2.70;;
5939;SDS011;2995;-31.998;115.906;2023-07-13T06:26:58;10.83;;;2.07;;
5939;SDS011;2995;-31.998;115.906;2023-07-13T06:29:29;10.57;;;2.67;;
5939;SDS011;2995;-31.998;115.906;2023-07-13T06:32:00;13.73;;;3.30;;
5939;SDS011;2995;-31.998;115.906;2023-07-13T06:34:31;13.53;;;2.53;;
5939;SDS011;2995;-31.998;115.906;2023-07-13T06:37:02;10.93;;;2.53;;
5939;SDS011;2995;-31.998;115.906;2023-07-13T06:39:34;11.93;;;3.67;;
5939;SDS011;2995;-31.998;115.906;2023-07-13T06:42:08;14.40;;;3.40;;
5939;SDS011;2995;-31.998;115.906;2023-07-13T06:44:39;10.10;;;3.33;;
5939;SDS011;2995;-31.998;115.906;2023-07-13T06:47:10;16.67;;;3.53;;
5939;SDS011;2995;-31.998;115.906;2023-07-13T06:49:41;10.87;;;2.97;;
5939;SDS011;2995;-31.998;115.906;2023-07-13T06:52:13;16.43;;;2.97;;
5939;SDS011;2995;-31.998;115.906;2023-07-13T06:54:44;15.70;;;3.27;;
5939;SDS011;2995;-31.998;115.906;2023-07-13T06:57:17;8.20;;;2.40;;
5939;SDS011;2995;-31.998;115.906;2023-07-13T06:59:48;19.83;;;3.00;;
5939;SDS011;2995;-31.998;115.906;2023-07-13T07:02:20;14.27;;;3.03;;
5939;SDS011;2995;-31.998;115.906;2023-07-13T07:04:51;17.53;;;3.70;;
5939;SDS011;2995;-31.998;115.906;2023-07-13T07:07:23;10.80;;;3.00;;
5939;SDS011;2995;-31.998;115.906;2023-07-13T07:09:55;13.80;;;2.47;;
5939;SDS011;2995;-31.998;115.906;2023-07-13T07:12:28;15.23;;;3.50;;
5939;SDS011;2995;-31.998;115.906;2023-07-13T07:14:59;8.43;;;2.37;;
5939;SDS011;2995;-31.998;115.906;2023-07-13T07:17:31;17.37;;;3.80;;
5939;SDS011;2995;-31.998;115.906;2023-07-13T07:20:02;14.77;;;3.60;;
5939;SDS011;2995;-31.998;115.906;2023-07-13T07:22:35;10.43;;;2.00;;
5939;SDS011;2995;-31.998;115.906;2023-07-13T07:25:06;13.70;;;3.00;;
5939;SDS011;2995;-31.998;115.906;2023-07-13T07:27:40;14.67;;;3.30;;
5939;SDS011;2995;-31.998;115.906;2023-07-13T07:30:11;12.13;;;2.90;;
5939;SDS011;2995;-31.998;115.906;2023-07-13T07:32:42;15.33;;;3.70;;
5939;SDS011;2995;-31.998;115.906;2023-07-13T07:35:14;14.37;;;3.30;;
5939;SDS011;2995;-31.998;115.906;2023-07-13T07:37:45;14.27;;;2.73;;
5939;SDS011;2995;-31.998;115.906;2023-07-13T07:40:16;13.63;;;3.30;;
5939;SDS011;2995;-31.998;115.906;2023-07-13T07:42:50;15.13;;;3.20;;
5939;SDS011;2995;-31.998;115.906;2023-07-13T07:45:21;16.67;;;3.00;;
5939;SDS011;2995;-31.998;115.906;2023-07-13T07:47:52;12.93;;;2.80;;
5939;SDS011;2995;-31.998;115.906;2023-07-13T07:50:25;13.67;;;3.03;;
5939;SDS011;2995;-31.998;115.906;2023-07-13T07:52:56;10.90;;;2.53;;
5939;SDS011;2995;-31.998;115.906;2023-07-13T07:55:28;11.20;;;3.17;;
5939;SDS011;2995;-31.998;115.906;2023-07-13T07:58:04;20.80;;;4.00;;
5939;SDS011;2995;-31.998;115.906;2023-07-13T08:00:35;14.43;;;3.20;;
5939;SDS011;2995;-31.998;115.906;2023-07-13T08:03:07;16.20;;;3.03;;
5939;SDS011;2995;-31.998;115.906;2023-07-13T08:05:38;11.23;;;2.23;;
5939;SDS011;2995;-31.998;115.906;2023-07-13T08:08:09;13.23;;;2.77;;
5939;SDS011;2995;-31.998;115.906;2023-07-13T08:10:40;9.83;;;2.30;;
5939;SDS011;2995;-31.998;115.906;2023-07-13T08:13:14;11.60;;;2.40;;
5939;SDS011;2995;-31.998;115.906;2023-07-13T08:15:45;12.90;;;2.90;;
5939;SDS011;2995;-31.998;115.906;2023-07-13T08:18:16;15.30;;;3.70;;
5939;SDS011;2995;-31.998;115.906;2023-07-13T08:20:48;11.50;;;3.20;;
5939;SDS011;2995;-31.998;115.906;2023-07-13T08:23:19;13.40;;;2.93;;
5939;SDS011;2995;-31.998;115.906;2023-07-13T08:25:53;13.77;;;3.37;;
5939;SDS011;2995;-31.998;115.906;2023-07-13T08:28:29;14.80;;;3.10;;
5939;SDS011;2995;-31.998;115.906;2023-07-13T08:31:01;9.13;;;2.60;;
5939;SDS011;2995;-31.998;115.906;2023-07-13T08:33:33;8.73;;;3.30;;
5939;SDS011;2995;-31.998;115.906;2023-07-13T08:36:07;12.20;;;2.70;;
5939;SDS011;2995;-31.998;115.906;2023-07-13T08:38:38;10.33;;;2.23;;
5939;SDS011;2995;-31.998;115.906;2023-07-13T08:41:13;7.57;;;2.63;;
5939;SDS011;2995;-31.998;115.906;2023-07-13T08:43:48;19.97;;;3.13;;
5939;SDS011;2995;-31.998;115.906;2023-07-13T08:46:23;11.43;;;2.87;;
5939;SDS011;2995;-31.998;115.906;2023-07-13T08:48:58;13.93;;;2.73;;
5939;SDS011;2995;-31.998;115.906;2023-07-13T08:51:36;11.17;;;2.83;;
5939;SDS011;2995;-31.998;115.906;2023-07-13T08:54:17;10.07;;;2.10;;
5939;SDS011;2995;-31.998;115.906;2023-07-13T08:56:52;12.00;;;2.80;;
5939;SDS011;2995;-31.998;115.906;2023-07-13T08:59:27;10.63;;;2.37;;
5939;SDS011;2995;-31.998;115.906;2023-07-13T09:02:16;11.70;;;2.03;;
5939;SDS011;2995;-31.998;115.906;2023-07-13T09:04:55;9.00;;;2.30;;
5939;SDS011;2995;-31.998;115.906;2023-07-13T09:07:34;8.73;;;2.10;;
5939;SDS011;2995;-31.998;115.906;2023-07-13T09:10:18;7.10;;;1.80;;
5939;SDS011;2995;-31.998;115.906;2023-07-13T09:12:57;12.70;;;2.57;;
5939;SDS011;2995;-31.998;115.906;2023-07-13T09:15:41;9.10;;;2.83;;
5939;SDS011;2995;-31.998;115.906;2023-07-13T09:18:16;11.77;;;2.30;;
5939;SDS011;2995;-31.998;115.906;2023-07-13T09:20:53;5.77;;;2.10;;
5939;SDS011;2995;-31.998;115.906;2023-07-13T09:23:28;7.40;;;3.07;;
5939;SDS011;2995;-31.998;115.906;2023-07-13T09:26:01;13.90;;;2.60;;
5939;SDS011;2995;-31.998;115.906;2023-07-13T09:28:37;8.00;;;2.00;;
5939;SDS011;2995;-31.998;115.906;2023-07-13T09:31:13;13.63;;;2.63;;
5939;SDS011;2995;-31.998;115.906;2023-07-13T09:33:46;11.63;;;2.07;;
5939;SDS011;2995;-31.998;115.906;2023-07-13T09:36:18;7.27;;;2.00;;
5939;SDS011;2995;-31.998;115.906;2023-07-13T09:38:56;11.10;;;2.20;;
5939;SDS011;2995;-31.998;115.906;2023-07-13T09:41:39;11.07;;;3.00;;
5939;SDS011;2995;-31.998;115.906;2023-07-13T09:44:16;9.37;;;2.50;;
5939;SDS011;2995;-31.998;115.906;2023-07-13T09:46:59;10.33;;;3.00;;
5939;SDS011;2995;-31.998;115.906;2023-07-13T09:49:33;14.67;;;2.47;;
5939;SDS011;2995;-31.998;115.906;2023-07-13T09:52:07;12.13;;;3.47;;
5939;SDS011;2995;-31.998;115.906;2023-07-13T09:54:44;12.90;;;2.80;;
5939;SDS011;2995;-31.998;115.906;2023-07-13T09:57:22;11.40;;;2.53;;
5939;SDS011;2995;-31.998;115.906;2023-07-13T09:59:55;13.17;;;2.30;;
5939;SDS011;2995;-31.998;115.906;2023-07-13T10:02:30;15.87;;;2.40;;
5939;SDS011;2995;-31.998;115.906;2023-07-13T10:05:02;10.27;;;2.63;;
5939;SDS011;2995;-31.998;115.906;2023-07-13T10:07:37;9.50;;;2.70;;
5939;SDS011;2995;-31.998;115.906;2023-07-13T10:10:13;11.77;;;2.83;;
5939;SDS011;2995;-31.998;115.906;2023-07-13T10:12:46;8.37;;;2.00;;
5939;SDS011;2995;-31.998;115.906;2023-07-13T10:15:19;8.20;;;1.97;;
5939;SDS011;2995;-31.998;115.906;2023-07-13T10:17:54;8.77;;;1.93;;
5939;SDS011;2995;-31.998;115.906;2023-07-13T10:20:26;12.87;;;2.77;;
5939;SDS011;2995;-31.998;115.906;2023-07-13T10:22:59;11.73;;;4.33;;
5939;SDS011;2995;-31.998;115.906;2023-07-13T10:25:33;38.13;;;13.30;;
5939;SDS011;2995;-31.998;115.906;2023-07-13T10:28:14;18.83;;;6.57;;
5939;SDS011;2995;-31.998;115.906;2023-07-13T10:30:55;15.00;;;5.53;;
5939;SDS011;2995;-31.998;115.906;2023-07-13T10:33:30;27.73;;;8.40;;
5939;SDS011;2995;-31.998;115.906;2023-07-13T10:36:03;10.97;;;3.47;;
5939;SDS011;2995;-31.998;115.906;2023-07-13T10:38:42;8.00;;;3.70;;
5939;SDS011;2995;-31.998;115.906;2023-07-13T10:41:17;19.67;;;5.00;;
5939;SDS011;2995;-31.998;115.906;2023-07-13T10:43:50;16.50;;;6.33;;
5939;SDS011;2995;-31.998;115.906;2023-07-13T10:46:23;9.57;;;3.00;;
5939;SDS011;2995;-31.998;115.906;2023-07-13T10:48:59;12.03;;;3.63;;
5939;SDS011;2995;-31.998;115.906;2023-07-13T10:51:34;13.70;;;3.00;;
5939;SDS011;2995;-31.998;115.906;2023-07-13T10:54:14;8.90;;;3.30;;
5939;SDS011;2995;-31.998;115.906;2023-07-13T10:56:49;14.80;;;3.07;;
5939;SDS011;2995;-31.998;115.906;2023-07-13T10:59:35;12.80;;;2.50;;
5939;SDS011;2995;-31.998;115.906;2023-07-13T11:02:10;10.93;;;3.60;;
5939;SDS011;2995;-31.998;115.906;2023-07-13T11:04:48;12.93;;;2.37;;
5939;SDS011;2995;-31.998;115.906;2023-07-13T11:07:22;20.03;;;4.30;;
5939;SDS011;2995;-31.998;115.906;2023-07-13T11:09:56;9.37;;;2.00;;
5939;SDS011;2995;-31.998;115.906;2023-07-13T11:18:19;15.23;;;2.50;;
5939;SDS011;2995;-31.998;115.906;2023-07-13T11:20:54;14.53;;;2.50;;
5939;SDS011;2995;-31.998;115.906;2023-07-13T11:23:44;10.07;;;2.97;;
5939;SDS011;2995;-31.998;115.906;2023-07-13T11:26:39;9.53;;;2.70;;
5939;SDS011;2995;-31.998;115.906;2023-07-13T11:29:15;18.53;;;4.27;;
5939;SDS011;2995;-31.998;115.906;2023-07-13T11:34:54;4.40;;;2.30;;
5939;SDS011;2995;-31.998;115.906;2023-07-13T11:37:27;18.03;;;3.60;;
5939;SDS011;2995;-31.998;115.906;2023-07-13T11:40:00;12.20;;;2.53;;
5939;SDS011;2995;-31.998;115.906;2023-07-13T11:42:32;6.50;;;2.00;;
5939;SDS011;2995;-31.998;115.906;2023-07-13T11:45:12;4.57;;;2.10;;
5939;SDS011;2995;-31.998;115.906;2023-07-13T11:47:51;10.57;;;2.23;;
5939;SDS011;2995;-31.998;115.906;2023-07-13T11:50:23;10.33;;;2.40;;
5939;SDS011;2995;-31.998;115.906;2023-07-13T11:52:57;19.00;;;5.50;;
5939;SDS011;2995;-31.998;115.906;2023-07-13T11:55:30;5.90;;;2.03;;
5939;SDS011;2995;-31.998;115.906;2023-07-13T11:58:07;7.47;;;2.53;;
5939;SDS011;2995;-31.998;115.906;2023-07-13T12:00:40;9.83;;;1.83;;
5939;SDS011;2995;-31.998;115.906;2023-07-13T12:03:13;6.63;;;1.97;;
5939;SDS011;2995;-31.998;115.906;2023-07-13T12:05:59;7.43;;;2.07;;
5939;SDS011;2995;-31.998;115.906;2023-07-13T12:08:37;9.37;;;1.93;;
5939;SDS011;2995;-31.998;115.906;2023-07-13T12:11:13;7.23;;;2.03;;
5939;SDS011;2995;-31.998;115.906;2023-07-13T12:13:46;10.23;;;2.50;;
5939;SDS011;2995;-31.998;115.906;2023-07-13T12:16:29;7.93;;;1.90;;
5939;SDS011;2995;-31.998;115.906;2023-07-13T12:19:02;14.80;;;2.80;;
5939;SDS011;2995;-31.998;115.906;2023-07-13T12:21:43;6.50;;;1.97;;
5939;SDS011;2995;-31.998;115.906;2023-07-13T12:24:17;10.17;;;2.77;;
5939;SDS011;2995;-31.998;115.906;2023-07-13T12:26:54;5.93;;;2.60;;
5939;SDS011;2995;-31.998;115.906;2023-07-13T12:29:31;7.20;;;1.70;;
5939;SDS011;2995;-31.998;115.906;2023-07-13T12:32:02;6.63;;;2.03;;
5939;SDS011;2995;-31.998;115.906;2023-07-13T12:34:52;7.83;;;2.20;;
5939;SDS011;2995;-31.998;115.906;2023-07-13T12:37:24;8.60;;;2.00;;
5939;SDS011;2995;-31.998;115.906;2023-07-13T12:39:59;5.00;;;2.30;;
5939;SDS011;2995;-31.998;115.906;2023-07-13T12:42:31;7.30;;;1.97;;
5939;SDS011;2995;-31.998;115.906;2023-07-13T12:45:05;9.40;;;1.97;;
5939;SDS011;2995;-31.998;115.906;2023-07-13T12:47:48;8.03;;;1.50;;
5939;SDS011;2995;-31.998;115.906;2023-07-13T12:50:28;4.80;;;1.80;;
5939;SDS011;2995;-31.998;115.906;2023-07-13T12:53:04;3.63;;;1.40;;
5939;SDS011;2995;-31.998;115.906;2023-07-13T12:55:44;5.40;;;1.43;;
5939;SDS011;2995;-31.998;115.906;2023-07-13T12:58:19;5.70;;;1.73;;
5939;SDS011;2995;-31.998;115.906;2023-07-13T13:00:56;7.57;;;1.70;;
5939;SDS011;2995;-31.998;115.906;2023-07-13T13:03:32;11.30;;;2.00;;
5939;SDS011;2995;-31.998;115.906;2023-07-13T13:06:05;4.17;;;1.40;;
5939;SDS011;2995;-31.998;115.906;2023-07-13T13:08:51;6.40;;;1.50;;
5939;SDS011;2995;-31.998;115.906;2023-07-13T13:11:31;10.60;;;1.83;;
5939;SDS011;2995;-31.998;115.906;2023-07-13T13:14:02;7.80;;;1.80;;
5939;SDS011;2995;-31.998;115.906;2023-07-13T13:16:34;3.20;;;1.30;;
5939;SDS011;2995;-31.998;115.906;2023-07-13T13:19:13;4.40;;;1.27;;
5939;SDS011;2995;-31.998;115.906;2023-07-13T13:21:48;2.30;;;1.03;;
5939;SDS011;2995;-31.998;115.906;2023-07-13T13:24:21;5.40;;;1.33;;
5939;SDS011;2995;-31.998;115.906;2023-07-13T13:26:55;6.67;;;1.70;;
5939;SDS011;2995;-31.998;115.906;2023-07-13T13:29:28;5.03;;;1.70;;
5939;SDS011;2995;-31.998;115.906;2023-07-13T13:32:01;12.33;;;1.57;;
5939;SDS011;2995;-31.998;115.906;2023-07-13T13:34:32;5.17;;;1.40;;
5939;SDS011;2995;-31.998;115.906;2023-07-13T13:37:04;6.77;;;1.37;;
5939;SDS011;2995;-31.998;115.906;2023-07-13T13:39:44;5.43;;;1.67;;
5939;SDS011;2995;-31.998;115.906;2023-07-13T13:42:18;7.20;;;1.40;;
5939;SDS011;2995;-31.998;115.906;2023-07-13T13:44:51;3.50;;;1.60;;
5939;SDS011;2995;-31.998;115.906;2023-07-13T13:47:29;5.07;;;1.60;;
5939;SDS011;2995;-31.998;115.906;2023-07-13T13:50:04;11.23;;;2.00;;
5939;SDS011;2995;-31.998;115.906;2023-07-13T13:52:44;4.83;;;1.60;;
5939;SDS011;2995;-31.998;115.906;2023-07-13T13:55:16;2.70;;;1.30;;
5939;SDS011;2995;-31.998;115.906;2023-07-13T13:57:52;5.47;;;1.50;;
5939;SDS011;2995;-31.998;115.906;2023-07-13T14:00:23;4.00;;;1.37;;
5939;SDS011;2995;-31.998;115.906;2023-07-13T14:02:54;6.80;;;1.30;;
5939;SDS011;2995;-31.998;115.906;2023-07-13T14:05:26;3.80;;;1.60;;
5939;SDS011;2995;-31.998;115.906;2023-07-13T14:07:57;6.17;;;1.60;;
5939;SDS011;2995;-31.998;115.906;2023-07-13T14:10:28;3.70;;;1.20;;
5939;SDS011;2995;-31.998;115.906;2023-07-13T14:13:02;4.60;;;1.60;;
5939;SDS011;2995;-31.998;115.906;2023-07-13T14:15:34;3.73;;;1.43;;
5939;SDS011;2995;-31.998;115.906;2023-07-13T14:18:07;2.03;;;1.20;;
5939;SDS011;2995;-31.998;115.906;2023-07-13T14:20:44;8.97;;;1.37;;
5939;SDS011;2995;-31.998;115.906;2023-07-13T14:23:15;7.57;;;1.40;;
5939;SDS011;2995;-31.998;115.906;2023-07-13T14:25:47;12.10;;;1.80;;
5939;SDS011;2995;-31.998;115.906;2023-07-13T14:28:24;4.20;;;1.40;;
5939;SDS011;2995;-31.998;115.906;2023-07-13T14:30:56;3.30;;;1.30;;
5939;SDS011;2995;-31.998;115.906;2023-07-13T14:33:27;3.67;;;1.33;;
5939;SDS011;2995;-31.998;115.906;2023-07-13T14:35:58;3.17;;;1.00;;
5939;SDS011;2995;-31.998;115.906;2023-07-13T14:38:30;2.40;;;0.97;;
5939;SDS011;2995;-31.998;115.906;2023-07-13T14:41:01;1.27;;;0.90;;
5939;SDS011;2995;-31.998;115.906;2023-07-13T14:43:35;1.40;;;0.83;;
5939;SDS011;2995;-31.998;115.906;2023-07-13T14:46:07;1.67;;;1.00;;
5939;SDS011;2995;-31.998;115.906;2023-07-13T14:48:51;2.17;;;0.80;;
5939;SDS011;2995;-31.998;115.906;2023-07-13T14:51:28;3.40;;;1.10;;
5939;SDS011;2995;-31.998;115.906;2023-07-13T14:54:02;3.87;;;1.10;;
5939;SDS011;2995;-31.998;115.906;2023-07-13T14:56:33;5.70;;;1.17;;
5939;SDS011;2995;-31.998;115.906;2023-07-13T14:59:07;3.03;;;0.93;;
5939;SDS011;2995;-31.998;115.906;2023-07-13T15:01:38;1.93;;;0.87;;
5939;SDS011;2995;-31.998;115.906;2023-07-13T15:04:10;3.67;;;0.90;;
5939;SDS011;2995;-31.998;115.906;2023-07-13T15:06:55;1.50;;;0.90;;
5939;SDS011;2995;-31.998;115.906;2023-07-13T15:09:28;2.70;;;1.00;;
5939;SDS011;2995;-31.998;115.906;2023-07-13T15:11:59;3.27;;;1.30;;
5939;SDS011;2995;-31.998;115.906;2023-07-13T15:14:33;3.40;;;1.00;;
5939;SDS011;2995;-31.998;115.906;2023-07-13T15:17:05;1.97;;;0.97;;
5939;SDS011;2995;-31.998;115.906;2023-07-13T15:19:47;2.17;;;1.03;;
5939;SDS011;2995;-31.998;115.906;2023-07-13T15:22:19;9.23;;;1.30;;
5939;SDS011;2995;-31.998;115.906;2023-07-13T15:24:50;5.90;;;1.40;;
5939;SDS011;2995;-31.998;115.906;2023-07-13T15:27:22;5.30;;;0.90;;
5939;SDS011;2995;-31.998;115.906;2023-07-13T15:29:55;3.03;;;0.93;;
5939;SDS011;2995;-31.998;115.906;2023-07-13T15:32:27;1.63;;;0.70;;
5939;SDS011;2995;-31.998;115.906;2023-07-13T15:34:58;1.40;;;0.80;;
5939;SDS011;2995;-31.998;115.906;2023-07-13T15:37:29;3.13;;;1.10;;
5939;SDS011;2995;-31.998;115.906;2023-07-13T15:40:01;6.43;;;1.00;;
5939;SDS011;2995;-31.998;115.906;2023-07-13T15:42:33;3.90;;;1.00;;
5939;SDS011;2995;-31.998;115.906;2023-07-13T15:45:09;3.10;;;0.90;;
5939;SDS011;2995;-31.998;115.906;2023-07-13T15:47:46;4.17;;;1.10;;
5939;SDS011;2995;-31.998;115.906;2023-07-13T15:50:18;2.13;;;0.83;;
5939;SDS011;2995;-31.998;115.906;2023-07-13T15:52:51;1.90;;;0.90;;
5939;SDS011;2995;-31.998;115.906;2023-07-13T15:55:24;9.10;;;1.50;;
5939;SDS011;2995;-31.998;115.906;2023-07-13T15:57:56;7.03;;;1.57;;
5939;SDS011;2995;-31.998;115.906;2023-07-13T16:00:29;2.63;;;1.03;;
5939;SDS011;2995;-31.998;115.906;2023-07-13T16:03:00;3.97;;;1.17;;
5939;SDS011;2995;-31.998;115.906;2023-07-13T16:05:32;5.20;;;1.10;;
5939;SDS011;2995;-31.998;115.906;2023-07-13T16:08:04;3.87;;;1.30;;
5939;SDS011;2995;-31.998;115.906;2023-07-13T16:10:46;6.40;;;1.20;;
5939;SDS011;2995;-31.998;115.906;2023-07-13T16:13:18;3.77;;;1.00;;
5939;SDS011;2995;-31.998;115.906;2023-07-13T16:15:53;10.07;;;1.53;;
5939;SDS011;2995;-31.998;115.906;2023-07-13T16:18:24;3.00;;;1.27;;
5939;SDS011;2995;-31.998;115.906;2023-07-13T16:20:56;3.93;;;1.30;;
5939;SDS011;2995;-31.998;115.906;2023-07-13T16:23:28;4.20;;;1.00;;
5939;SDS011;2995;-31.998;115.906;2023-07-13T16:26:02;2.57;;;1.10;;
5939;SDS011;2995;-31.998;115.906;2023-07-13T16:28:34;3.07;;;1.17;;
5939;SDS011;2995;-31.998;115.906;2023-07-13T16:31:08;5.20;;;1.20;;